Time;durP1;ratioP1;P1;durP2;ratioP2;P2;SDS_P1;SDS_P2;PMS_P1;PMS_P2;Temp;Humidity;BMP_temperature;BMP_pressure;BME280_temperature;BME280_humidity;BME280_pressure;Samples;Min_cycle;Max_cycle;Signal;HPM_P1;HPM_P2
2022/07/03 00:00:04;;;;;;;1.50;1.30;;;16.00;99.90;;;;;;5014906;28;20037;-55
2022/07/03 00:02:37;;;;;;;4.40;1.23;;;15.90;99.90;;;;;;5015047;28;20462;-56
2022/07/03 00:05:05;;;;;;;1.95;1.42;;;15.90;99.90;;;;;;5016364;28;20044;-56
2022/07/03 00:07:31;;;;;;;1.88;1.30;;;15.90;99.90;;;;;;5016320;28;20115;-55
2022/07/03 00:09:58;;;;;;;;;;;15.90;99.90;;;;;;5016467;28;20061;-55
2022/07/03 00:12:25;;;;;;;3.47;1.55;;;15.90;99.90;;;;;;5016227;28;19925;-54
2022/07/03 00:14:52;;;;;;;1.70;1.60;;;15.80;99.90;;;;;;5015800;28;20045;-55
2022/07/03 00:17:18;;;;;;;;;;;15.80;99.90;;;;;;5015280;28;20779;-56
2022/07/03 00:19:45;;;;;;;1.65;1.25;;;15.80;99.90;;;;;;5016405;28;20311;-56
2022/07/03 00:22:13;;;;;;;1.65;1.55;;;15.80;99.90;;;;;;5014511;28;20145;-55
2022/07/03 00:24:49;;;;;;;1.52;1.42;;;15.80;99.90;;;;;;5016592;28;20119;-56
2022/07/03 00:27:19;;;;;;;2.58;1.63;;;15.70;99.90;;;;;;5015728;28;20702;-54
2022/07/03 00:29:48;;;;;;;1.48;1.35;;;15.70;99.90;;;;;;5015715;28;20137;-55
2022/07/03 00:32:22;;;;;;;1.20;1.08;;;15.70;99.90;;;;;;5015134;28;20045;-55
2022/07/03 00:34:51;;;;;;;1.52;1.30;;;15.70;99.90;;;;;;5016210;28;20045;-56
2022/07/03 00:37:18;;;;;;;2.83;1.40;;;15.60;99.90;;;;;;5015725;28;20079;-54
2022/07/03 00:39:45;;;;;;;1.80;1.02;;;15.60;99.90;;;;;;5014838;28;20116;-55
2022/07/03 00:42:12;;;;;;;3.72;1.40;;;15.50;99.90;;;;;;5013216;28;20571;-55
2022/07/03 00:44:52;;;;;;;3.05;1.60;;;15.50;99.90;;;;;;5013689;28;20045;-55
2022/07/03 00:47:22;;;;;;;1.45;1.20;;;15.40;99.90;;;;;;5015757;28;20783;-55
2022/07/03 00:49:52;;;;;;;6.47;1.35;;;15.40;99.90;;;;;;5015532;28;20049;-55
2022/07/03 00:52:20;;;;;;;3.15;1.70;;;15.40;99.90;;;;;;5014223;28;20608;-57
2022/07/03 00:54:54;;;;;;;1.15;1.10;;;15.40;99.90;;;;;;5013748;28;20041;-57
2022/07/03 00:57:22;;;;;;;2.47;1.45;;;15.40;99.90;;;;;;5015707;28;20045;-56
2022/07/03 00:59:49;;;;;;;2.15;1.77;;;15.30;99.90;;;;;;5014922;28;20045;-55
2022/07/03 01:03:06;;;;;;;3.33;1.50;;;15.30;99.90;;;;;;5015223;28;20041;-54
2022/07/03 01:05:42;;;;;;;1.80;1.27;;;15.30;99.90;;;;;;5011970;28;20516;-55
2022/07/03 01:08:29;;;;;;;1.30;1.20;;;15.20;99.90;;;;;;5015521;28;20519;-55
2022/07/03 01:10:59;;;;;;;3.38;1.15;;;15.20;99.90;;;;;;5013648;28;20045;-55
2022/07/03 01:13:44;;;;;;;4.57;1.35;;;15.20;99.90;;;;;;5014949;28;20046;-55
2022/07/03 01:16:37;;;;;;;1.40;1.30;;;15.10;99.90;;;;;;5015103;28;20042;-55
2022/07/03 01:19:34;;;;;;;1.55;1.30;;;15.10;99.90;;;;;;4991592;28;20123;-55
2022/07/03 01:22:19;;;;;;;1.30;1.20;;;15.10;99.90;;;;;;4994960;28;20053;-55
2022/07/03 01:24:56;;;;;;;4.20;1.63;;;15.00;99.90;;;;;;4995511;28;20042;-53
2022/07/03 01:27:30;;;;;;;2.40;1.80;;;15.00;99.90;;;;;;5000843;28;20037;-55
2022/07/03 01:30:10;;;;;;;1.42;1.33;;;15.00;99.90;;;;;;5014577;28;20060;-54
2022/07/03 01:32:42;;;;;;;5.05;1.60;;;15.00;99.90;;;;;;5013862;28;20056;-55
2022/07/03 01:35:13;;;;;;;3.40;1.42;;;15.00;99.90;;;;;;5014406;28;20041;-55
2022/07/03 01:37:40;;;;;;;5.88;1.42;;;15.00;99.90;;;;;;5014259;28;20458;-55
2022/07/03 01:40:08;;;;;;;2.58;1.50;;;14.90;99.90;;;;;;5013148;28;20053;-54
2022/07/03 01:42:41;;;;;;;4.20;1.58;;;14.90;99.90;;;;;;5012392;28;20096;-55
2022/07/03 01:45:10;;;;;;;2.58;1.83;;;14.90;99.90;;;;;;5011324;28;20045;-55
2022/07/03 01:47:42;;;;;;;2.15;1.27;;;14.90;99.90;;;;;;5014667;28;20499;-55
2022/07/03 01:50:14;;;;;;;6.18;1.67;;;14.90;99.90;;;;;;5012737;28;20064;-55
2022/07/03 01:52:42;;;;;;;4.13;1.23;;;14.90;99.90;;;;;;5012691;28;20155;-55
2022/07/03 01:55:15;;;;;;;4.20;1.30;;;14.80;99.90;;;;;;5013882;28;20128;-53
2022/07/03 01:57:48;;;;;;;3.58;1.55;;;14.80;99.90;;;;;;5015004;28;20045;-53
2022/07/03 02:00:18;;;;;;;1.52;1.42;;;14.80;99.90;;;;;;5014003;28;20488;-55
2022/07/03 02:03:01;;;;;;;1.50;1.40;;;14.80;99.90;;;;;;5013265;28;20401;-54
2022/07/03 02:05:47;;;;;;;1.58;1.20;;;14.80;99.90;;;;;;5014175;28;20076;-55
2022/07/03 02:08:38;;;;;;;4.50;1.67;;;14.80;99.90;;;;;;5013358;28;20050;-53
2022/07/03 02:11:19;;;;;;;1.67;1.38;;;14.80;99.90;;;;;;5014105;28;20119;-55
2022/07/03 02:14:07;;;;;;;1.40;1.30;;;14.80;99.90;;;;;;5013986;28;20570;-55
2022/07/03 02:17:15;;;;;;;2.90;1.70;;;14.70;99.90;;;;;;5012716;28;20045;-54
2022/07/03 02:19:53;;;;;;;2.20;1.60;;;14.70;99.90;;;;;;4994199;28;20050;-55
2022/07/03 02:22:29;;;;;;;1.55;1.45;;;14.70;99.90;;;;;;4992866;28;20744;-55
2022/07/03 02:25:06;;;;;;;1.00;1.00;;;14.70;99.90;;;;;;4994625;28;20084;-55
2022/07/03 02:27:44;;;;;;;1.65;1.35;;;14.70;99.90;;;;;;5002885;28;20750;-54
2022/07/03 02:30:12;;;;;;;2.45;1.45;;;14.70;99.90;;;;;;5013923;28;20045;-54
2022/07/03 02:32:45;;;;;;;2.90;1.60;;;14.70;99.90;;;;;;5013125;28;20053;-54
2022/07/03 02:35:16;;;;;;;5.65;1.63;;;14.60;99.90;;;;;;5013897;28;20723;-53
2022/07/03 02:37:48;;;;;;;2.28;1.45;;;14.70;99.90;;;;;;5013650;28;20880;-54
2022/07/03 02:40:24;;;;;;;1.75;1.40;;;14.60;99.90;;;;;;5014208;28;20049;-56
2022/07/03 02:42:58;;;;;;;1.80;1.65;;;14.60;99.90;;;;;;5013631;28;20042;-55
2022/07/03 02:45:38;;;;;;;2.33;1.73;;;14.60;99.90;;;;;;5012126;28;20038;-55
2022/07/03 02:48:31;;;;;;;4.47;1.60;;;14.60;99.90;;;;;;5012768;28;20590;-55
2022/07/03 02:51:04;;;;;;;1.55;1.40;;;14.60;99.90;;;;;;5014046;28;20500;-57
2022/07/03 02:53:41;;;;;;;1.33;1.23;;;14.60;99.90;;;;;;5012336;28;20051;-53
2022/07/03 02:56:15;;;;;;;5.85;1.45;;;14.60;99.90;;;;;;5013883;28;20034;-54
2022/07/03 02:58:59;;;;;;;2.70;1.50;;;14.60;99.90;;;;;;5012111;28;20997;-58
2022/07/03 03:01:57;;;;;;;1.60;1.50;;;14.60;99.90;;;;;;5013818;28;20099;-55
2022/07/03 03:04:32;;;;;;;3.78;1.70;;;14.60;99.90;;;;;;4997985;28;20042;-57
2022/07/03 03:07:13;;;;;;;2.42;1.40;;;14.60;99.90;;;;;;4995521;28;20128;-55
2022/07/03 03:09:45;;;;;;;1.30;1.20;;;14.60;99.90;;;;;;4997639;28;20062;-57
2022/07/03 03:12:14;;;;;;;1.33;1.25;;;14.60;99.90;;;;;;4996038;28;20053;-55
2022/07/03 03:14:43;;;;;;;1.60;1.50;;;14.60;99.90;;;;;;4996027;28;20127;-55
2022/07/03 03:17:17;;;;;;;2.20;1.80;;;14.60;99.90;;;;;;4999988;28;20886;-55
2022/07/03 03:19:50;;;;;;;1.60;1.50;;;14.60;99.90;;;;;;5016842;28;20581;-55
2022/07/03 03:22:19;;;;;;;1.40;1.30;;;14.50;99.90;;;;;;5017366;28;20140;-55
2022/07/03 03:24:47;;;;;;;1.85;1.55;;;14.50;99.90;;;;;;5016179;28;20038;-55
2022/07/03 03:27:14;;;;;;;3.47;1.63;;;14.50;99.90;;;;;;5016654;28;20774;-54
2022/07/03 03:29:41;;;;;;;1.75;1.48;;;14.50;99.90;;;;;;5017012;28;20212;-53
2022/07/03 03:32:08;;;;;;;3.10;1.50;;;14.40;99.90;;;;;;4995958;28;20042;-55
2022/07/03 03:34:35;;;;;;;1.80;1.50;;;14.40;99.90;;;;;;4996761;28;20049;-56
2022/07/03 03:37:03;;;;;;;2.33;1.90;;;14.40;99.90;;;;;;4997091;28;20052;-56
2022/07/03 03:39:29;;;;;;;1.85;1.58;;;14.40;99.90;;;;;;4995547;28;20115;-56
2022/07/03 03:41:56;;;;;;;2.08;1.48;;;14.40;99.90;;;;;;4999245;28;20056;-55
2022/07/03 03:44:24;;;;;;;;;;;14.30;99.90;;;;;;5017030;28;20072;-54
2022/07/03 03:46:51;;;;;;;1.45;1.35;;;14.30;99.90;;;;;;5014014;28;20028;-54
2022/07/03 03:49:18;;;;;;;1.65;1.55;;;14.30;99.90;;;;;;5014394;28;20059;-57
2022/07/03 03:51:45;;;;;;;1.73;1.15;;;14.30;99.90;;;;;;5015183;28;20065;-56
2022/07/03 03:54:12;;;;;;;1.75;1.58;;;14.30;99.90;;;;;;5016533;28;20045;-54
2022/07/03 03:56:38;;;;;;;;;;;14.30;99.90;;;;;;5017018;28;20041;-56
2022/07/03 03:59:05;;;;;;;1.23;1.13;;;14.30;99.90;;;;;;5016565;28;19925;-57
2022/07/03 04:01:32;;;;;;;;;;;14.30;99.90;;;;;;5016743;28;20045;-55
2022/07/03 04:03:59;;;;;;;2.17;1.77;;;14.30;99.90;;;;;;5016765;28;20023;-54
2022/07/03 04:06:26;;;;;;;2.67;1.38;;;14.40;99.90;;;;;;5014846;28;20128;-53
2022/07/03 04:08:53;;;;;;;;;;;14.40;99.90;;;;;;5017164;28;20073;-55
2022/07/03 04:11:20;;;;;;;1.40;1.30;;;14.40;99.90;;;;;;5016440;28;20040;-56
2022/07/03 04:13:47;;;;;;;;;;;14.40;99.90;;;;;;5016002;28;20056;-53
2022/07/03 04:16:14;;;;;;;1.83;1.70;;;14.40;99.90;;;;;;5016126;28;19967;-52
2022/07/03 04:18:40;;;;;;;;;;;14.40;99.90;;;;;;5016220;28;20045;-55
2022/07/03 04:21:08;;;;;;;2.85;1.58;;;14.50;99.90;;;;;;5016209;28;19921;-54
2022/07/03 04:23:34;;;;;;;2.13;1.63;;;14.50;99.90;;;;;;5016080;28;20660;-55
2022/07/03 04:26:05;;;;;;;;;;;14.60;99.90;;;;;;5016692;28;20053;-53
2022/07/03 04:28:32;;;;;;;1.77;1.35;;;14.60;99.90;;;;;;5015305;28;19932;-54
2022/07/03 04:30:59;;;;;;;2.22;1.48;;;14.60;99.90;;;;;;5015529;28;20041;-56
2022/07/03 04:33:26;;;;;;;1.95;1.13;;;14.70;99.90;;;;;;5014854;28;20054;-55
2022/07/03 04:35:53;;;;;;;;;;;14.70;99.90;;;;;;5016797;28;20115;-54
2022/07/03 04:38:20;;;;;;;6.10;1.75;;;14.70;99.90;;;;;;5014009;28;19925;-55
2022/07/03 04:40:47;;;;;;;;;;;14.80;99.90;;;;;;4998096;28;20041;-53
2022/07/03 04:43:13;;;;;;;7.55;3.78;;;14.90;99.90;;;;;;5015170;28;19925;-53
2022/07/03 04:45:40;;;;;;;;;;;14.90;99.90;;;;;;5015415;28;20045;-54
2022/07/03 04:48:07;;;;;;;2.10;1.35;;;15.00;99.90;;;;;;5013705;28;19954;-56
2022/07/03 04:50:34;;;;;;;;;;;15.10;99.90;;;;;;5015868;28;20107;-53
2022/07/03 04:53:00;;;;;;;1.10;1.00;;;15.10;99.90;;;;;;5015720;28;19921;-54
2022/07/03 04:55:27;;;;;;;;;;;15.20;99.90;;;;;;5015671;28;20037;-53
2022/07/03 04:57:54;;;;;;;5.28;1.25;;;15.30;99.90;;;;;;5015639;28;20086;-58
2022/07/03 05:00:20;;;;;;;;;;;15.30;99.90;;;;;;5016335;28;20213;-57
2022/07/03 05:02:47;;;;;;;1.33;1.23;;;15.40;99.90;;;;;;5015406;28;19925;-53
2022/07/03 05:05:14;;;;;;;1.45;1.13;;;15.40;99.90;;;;;;5015596;28;20037;-57
2022/07/03 05:07:41;;;;;;;;;;;15.50;99.90;;;;;;5015443;28;20976;-56
2022/07/03 05:10:08;;;;;;;2.75;1.20;;;15.50;99.90;;;;;;5015341;28;20176;-54
2022/07/03 05:12:35;;;;;;;1.50;1.20;;;15.60;99.90;;;;;;5014871;28;20224;-57
2022/07/03 05:15:07;;;;;;;1.35;1.25;;;15.60;99.90;;;;;;5015160;28;20057;-56
2022/07/03 05:17:34;;;;;;;1.25;1.00;;;15.70;99.90;;;;;;5015133;28;20069;-56
2022/07/03 05:22:52;;;;;;;;;;;15.90;99.90;;;;;;5015498;28;20056;-56
2022/07/03 05:25:20;;;;;;;3.08;1.27;;;16.00;99.90;;;;;;5014753;28;19925;-56
2022/07/03 05:27:47;;;;;;;3.92;1.40;;;16.10;99.90;;;;;;5013706;28;20059;-57
2022/07/03 05:30:14;;;;;;;0.95;0.95;;;16.20;99.90;;;;;;5014571;28;20049;-56
2022/07/03 05:32:40;;;;;;;2.65;1.40;;;16.20;99.90;;;;;;5014487;28;20778;-55
2022/07/03 05:35:07;;;;;;;;;;;16.30;99.90;;;;;;5015356;28;20049;-52
2022/07/03 05:37:34;;;;;;;4.37;1.40;;;16.50;99.90;;;;;;5013332;28;19925;-53
2022/07/03 05:40:01;;;;;;;3.05;1.10;;;16.60;99.90;;;;;;5014129;28;20045;-58
2022/07/03 05:42:28;;;;;;;6.68;1.40;;;16.70;99.90;;;;;;5014623;28;20045;-58
2022/07/03 05:44:55;;;;;;;;;;;16.80;99.90;;;;;;5015002;28;20045;-58
2022/07/03 05:47:21;;;;;;;1.55;1.10;;;17.00;99.90;;;;;;5013780;28;19925;-57
2022/07/03 05:49:48;;;;;;;1.70;1.20;;;17.00;99.90;;;;;;5013459;28;20052;-58
2022/07/03 05:52:16;;;;;;;2.95;1.25;;;17.20;99.90;;;;;;5013855;28;20091;-55
2022/07/03 05:54:43;;;;;;;2.75;1.50;;;17.30;99.90;;;;;;5015116;28;20113;-52
2022/07/03 05:57:10;;;;;;;1.60;1.30;;;17.40;99.90;;;;;;5014620;28;20046;-52
2022/07/03 05:59:37;;;;;;;1.63;1.30;;;17.60;99.90;;;;;;5012839;28;20100;-52
2022/07/03 06:02:03;;;;;;;;;;;17.70;99.90;;;;;;5013251;28;20041;-54
2022/07/03 06:04:30;;;;;;;4.73;1.30;;;17.80;99.90;;;;;;5014378;28;20201;-52
2022/07/03 06:06:57;;;;;;;;;;;18.00;99.90;;;;;;5014956;28;20053;-53
2022/07/03 06:09:24;;;;;;;1.20;1.10;;;18.00;99.90;;;;;;5014127;28;19921;-52
2022/07/03 06:11:51;;;;;;;;;;;18.10;99.90;;;;;;5014991;28;20084;-53
2022/07/03 06:14:18;;;;;;;1.08;1.05;;;18.10;99.90;;;;;;5013887;28;19925;-54
2022/07/03 06:16:44;;;;;;;1.85;1.40;;;18.10;99.90;;;;;;5014745;28;20041;-53
2022/07/03 06:19:11;;;;;;;4.63;1.23;;;18.10;99.90;;;;;;5013740;28;20065;-52
2022/07/03 06:21:38;;;;;;;1.15;0.80;;;18.10;99.90;;;;;;5012876;28;20142;-55
2022/07/03 06:24:06;;;;;;;1.30;1.20;;;18.20;99.90;;;;;;5012728;28;20041;-55
2022/07/03 06:26:32;;;;;;;1.73;0.90;;;18.20;99.90;;;;;;5014802;28;20690;-55
2022/07/03 06:28:59;;;;;;;1.38;1.25;;;18.40;99.90;;;;;;5012364;28;20041;-51
2022/07/03 06:31:26;;;;;;;;;;;18.40;99.90;;;;;;5014581;28;20401;-52
2022/07/03 06:33:53;;;;;;;0.90;0.90;;;18.50;99.90;;;;;;5013629;28;19925;-54
2022/07/03 06:36:20;;;;;;;3.63;1.38;;;18.60;99.90;;;;;;5016050;28;20045;-51
2022/07/03 06:38:47;;;;;;;1.48;1.27;;;18.70;99.90;;;;;;5016424;28;20057;-55
2022/07/03 06:41:14;;;;;;;1.55;1.15;;;18.80;99.90;;;;;;5017653;28;20046;-50
2022/07/03 06:43:40;;;;;;;0.90;0.90;;;19.00;99.90;;;;;;5015901;28;20221;-52
2022/07/03 06:46:07;;;;;;;1.38;1.08;;;19.10;99.90;;;;;;5016376;28;20482;-53
2022/07/03 06:48:34;;;;;;;1.05;1.05;;;19.20;99.90;;;;;;5011195;28;20227;-52
2022/07/03 06:51:01;;;;;;;1.88;1.27;;;19.40;99.90;;;;;;5016759;28;20041;-54
2022/07/03 06:53:28;;;;;;;1.40;1.27;;;19.50;99.90;;;;;;5000294;28;20041;-52
2022/07/03 06:55:55;;;;;;;0.88;0.85;;;19.60;99.90;;;;;;5017876;28;20052;-52
2022/07/03 06:58:21;;;;;;;1.67;1.00;;;19.70;99.90;;;;;;5017613;28;20127;-54
2022/07/03 07:00:48;;;;;;;1.60;1.02;;;19.80;99.90;;;;;;5018497;28;20072;-54
2022/07/03 07:03:15;;;;;;;3.17;1.30;;;19.90;99.90;;;;;;5015642;28;20043;-54
2022/07/03 07:05:42;;;;;;;3.83;1.38;;;20.00;99.90;;;;;;5017818;28;20041;-67
2022/07/03 07:08:09;;;;;;;1.52;1.08;;;20.10;99.90;;;;;;5015601;28;20056;-68
2022/07/03 07:10:36;;;;;;;2.95;1.27;;;20.20;99.90;;;;;;5016275;28;20139;-67
2022/07/03 07:13:03;;;;;;;1.80;1.52;;;20.30;99.90;;;;;;5015473;28;20046;-68
2022/07/03 07:15:30;;;;;;;1.38;1.20;;;20.40;99.90;;;;;;5017465;28;20144;-69
2022/07/03 07:17:56;;;;;;;1.30;1.20;;;20.50;99.90;;;;;;5015588;28;20044;-68
2022/07/03 07:20:23;;;;;;;1.52;1.15;;;20.70;99.90;;;;;;5016373;28;20045;-66
2022/07/03 07:22:51;;;;;;;3.00;1.23;;;20.80;99.90;;;;;;5016412;28;20104;-67
2022/07/03 07:25:17;;;;;;;1.38;0.93;;;20.90;99.90;;;;;;5017053;28;20045;-68
2022/07/03 07:27:44;;;;;;;3.53;1.17;;;21.00;99.90;;;;;;5016865;28;20103;-68
2022/07/03 07:30:11;;;;;;;2.65;1.60;;;21.10;99.90;;;;;;4998380;28;20053;-66
2022/07/03 07:32:38;;;;;;;2.17;1.35;;;21.20;99.90;;;;;;5016774;28;20049;-67
2022/07/03 07:35:05;;;;;;;4.78;2.28;;;21.30;99.90;;;;;;5016616;28;20710;-67
2022/07/03 07:37:32;;;;;;;1.40;1.20;;;21.40;99.90;;;;;;5017178;28;20483;-67
2022/07/03 07:39:59;;;;;;;3.30;1.40;;;21.60;99.90;;;;;;4998647;28;20707;-67
2022/07/03 07:42:27;;;;;;;3.70;1.08;;;21.70;99.90;;;;;;5016404;28;20076;-67
2022/07/03 07:44:54;;;;;;;1.30;1.15;;;21.90;99.90;;;;;;5014974;28;20103;-65
2022/07/03 07:47:21;;;;;;;1.50;1.23;;;22.00;99.90;;;;;;5016170;28;20041;-66
2022/07/03 07:49:48;;;;;;;1.35;1.17;;;22.10;99.90;;;;;;5012214;28;20033;-67
2022/07/03 07:52:15;;;;;;;0.88;0.88;;;22.20;99.90;;;;;;5015997;28;20610;-70
2022/07/03 07:54:42;;;;;;;1.88;1.30;;;22.30;99.90;;;;;;5016775;28;20127;-65
2022/07/03 07:57:09;;;;;;;0.90;0.90;;;22.50;99.90;;;;;;5015730;28;20045;-65
2022/07/03 07:59:35;;;;;;;3.20;1.20;;;22.60;99.90;;;;;;5015823;28;20065;-66
2022/07/03 08:07:54;;;;;;;1.45;1.20;;;23.10;99.90;;;;;;4996025;28;20049;-66
2022/07/03 08:10:21;;;;;;;11.60;1.30;;;23.20;99.90;;;;;;4996971;28;20673;-64
2022/07/03 08:12:48;;;;;;;1.58;1.45;;;23.30;99.90;;;;;;4995234;28;20054;-66
2022/07/03 08:15:15;;;;;;;3.08;1.10;;;23.50;99.90;;;;;;4996561;28;20046;-65
2022/07/03 08:17:42;;;;;;;1.80;1.00;;;23.60;99.90;;;;;;5004859;28;20073;-65
2022/07/03 08:20:09;;;;;;;2.80;1.08;;;23.80;99.90;;;;;;5014520;28;20773;-66
2022/07/03 08:22:36;;;;;;;5.53;1.20;;;24.00;99.90;;;;;;5016313;28;20046;-67
2022/07/03 08:25:03;;;;;;;1.30;1.10;;;24.20;98.80;;;;;;5015650;28;20052;-67
2022/07/03 08:27:30;;;;;;;1.45;1.13;;;24.40;99.90;;;;;;5016243;28;20045;-64
2022/07/03 08:29:57;;;;;;;2.40;1.13;;;24.60;98.40;;;;;;5015122;28;20569;-64
2022/07/03 08:32:24;;;;;;;3.85;0.95;;;24.90;95.90;;;;;;5014099;28;20056;-65
2022/07/03 08:34:50;;;;;;;1.45;0.90;;;25.20;92.80;;;;;;5016094;28;20049;-66
2022/07/03 08:37:17;;;;;;;1.15;1.05;;;25.30;90.10;;;;;;5015725;28;20545;-66
2022/07/03 08:39:44;;;;;;;1.10;1.00;;;25.50;86.60;;;;;;5016277;28;20256;-65
2022/07/03 08:42:12;;;;;;;1.45;1.20;;;25.70;82.90;;;;;;4993861;28;20052;-66
2022/07/03 08:44:43;;;;;;;1.08;0.90;;;25.90;85.10;;;;;;4995962;28;20068;-66
2022/07/03 08:47:12;;;;;;;2.53;0.88;;;26.20;80.40;;;;;;4998235;28;20882;-66
2022/07/03 08:49:41;;;;;;;1.13;0.80;;;26.50;76.20;;;;;;5014979;28;20049;-66
2022/07/03 08:52:10;;;;;;;0.70;0.70;;;26.70;69.80;;;;;;5011287;28;20049;-66
2022/07/03 08:54:37;;;;;;;0.68;0.60;;;27.00;70.70;;;;;;5014162;28;20050;-66
2022/07/03 08:57:05;;;;;;;1.48;0.90;;;27.10;60.10;;;;;;5015059;28;20049;-66
2022/07/03 08:59:36;;;;;;;1.00;0.77;;;27.30;58.20;;;;;;5014369;28;20831;-66
2022/07/03 09:02:04;;;;;;;1.00;0.68;;;27.50;62.80;;;;;;5015429;28;20075;-65
2022/07/03 09:04:33;;;;;;;3.92;0.90;;;27.80;63.70;;;;;;5013643;28;20190;-66
2022/07/03 09:07:00;;;;;;;1.88;1.08;;;28.00;58.80;;;;;;5015459;28;20046;-66
2022/07/03 09:09:28;;;;;;;1.58;1.00;;;28.20;68.10;;;;;;5014632;28;20046;-66
2022/07/03 09:11:54;;;;;;;5.32;1.08;;;28.40;66.40;;;;;;5015348;28;20041;-66
2022/07/03 09:14:21;;;;;;;2.80;0.88;;;28.50;58.50;;;;;;5014629;28;20042;-66
2022/07/03 09:16:50;;;;;;;1.30;0.93;;;28.70;57.70;;;;;;5015686;28;20100;-66
2022/07/03 09:19:41;;;;;;;1.30;1.00;;;28.80;57.60;;;;;;5012999;28;20057;-66
2022/07/03 09:22:26;;;;;;;5.57;2.83;;;29.00;63.00;;;;;;5015300;28;20972;-66
2022/07/03 09:25:03;;;;;;;6.97;1.88;;;29.20;62.20;;;;;;5013022;28;20565;-66
2022/07/03 09:27:30;;;;;;;1.85;1.08;;;29.40;60.10;;;;;;5015019;28;20055;-66
2022/07/03 09:30:01;;;;;;;1.13;1.05;;;29.50;60.80;;;;;;5013759;28;20041;-66
2022/07/03 09:32:40;;;;;;;1.30;0.98;;;29.60;61.50;;;;;;5013189;28;20063;-66
2022/07/03 09:35:25;;;;;;;1.98;1.20;;;29.80;59.80;;;;;;5013552;28;20693;-66
2022/07/03 09:37:57;;;;;;;1.00;1.00;;;30.00;59.10;;;;;;5013917;28;20041;-66
2022/07/03 09:40:45;;;;;;;2.80;1.35;;;30.10;60.90;;;;;;5013550;28;20736;-66
2022/07/03 09:43:12;;;;;;;1.33;1.25;;;30.30;61.20;;;;;;5014102;28;20049;-66
2022/07/03 09:45:49;;;;;;;2.00;1.55;;;30.30;60.90;;;;;;5013552;28;20050;-66
2022/07/03 09:48:27;;;;;;;1.75;1.25;;;30.30;59.40;;;;;;5014124;28;20073;-66
2022/07/03 09:51:28;;;;;;;1.50;1.40;;;30.30;59.70;;;;;;4995279;28;20700;-68
2022/07/03 09:53:59;;;;;;;9.73;1.17;;;30.30;60.20;;;;;;5003876;28;20046;-65
2022/07/03 09:56:38;;;;;;;1.65;1.05;;;30.30;62.20;;;;;;5014984;28;20714;-66
2022/07/03 09:59:12;;;;;;;3.92;1.10;;;30.40;59.60;;;;;;5013116;28;20696;-65
2022/07/03 10:01:44;;;;;;;4.85;1.00;;;30.40;58.70;;;;;;5013832;28;20048;-65
2022/07/03 10:04:17;;;;;;;3.65;1.33;;;30.40;59.40;;;;;;5014129;28;20156;-65
2022/07/03 10:06:57;;;;;;;2.58;1.15;;;30.40;59.80;;;;;;5013702;28;20037;-65
2022/07/03 10:09:24;;;;;;;3.72;1.20;;;30.40;59.60;;;;;;5014297;28;20049;-65
2022/07/03 10:11:53;;;;;;;2.42;1.42;;;30.40;57.90;;;;;;5017789;28;20049;-65
2022/07/03 10:14:29;;;;;;;3.35;1.17;;;30.30;58.10;;;;;;5016606;28;20049;-65
2022/07/03 10:16:58;;;;;;;1.45;1.13;;;30.30;60.70;;;;;;5017076;28;20046;-65
2022/07/03 10:19:30;;;;;;;3.47;1.20;;;30.40;58.10;;;;;;5018017;28;20045;-64
2022/07/03 10:22:02;;;;;;;1.40;1.30;;;30.50;57.70;;;;;;5018607;28;20507;-65
2022/07/03 10:24:30;;;;;;;2.13;1.17;;;30.50;55.70;;;;;;5018381;28;20133;-64
2022/07/03 10:26:58;;;;;;;4.60;1.63;;;30.60;54.30;;;;;;5018279;28;20038;-65
2022/07/03 10:29:27;;;;;;;2.25;1.10;;;30.70;55.10;;;;;;5017316;28;20041;-65
2022/07/03 10:31:57;;;;;;;3.92;1.17;;;30.70;56.00;;;;;;5022663;28;20057;-65
2022/07/03 10:34:26;;;;;;;2.67;1.20;;;30.70;56.40;;;;;;5017124;28;20075;-65
2022/07/03 10:37:00;;;;;;;3.35;1.58;;;30.80;56.60;;;;;;5017826;28;20095;-65
2022/07/03 10:46:10;;;;;;;1.85;0.98;;;30.90;56.30;;;;;;5018188;28;20034;-65
2022/07/03 10:48:57;;;;;;;8.05;1.25;;;31.10;55.60;;;;;;5016825;28;20448;-65
2022/07/03 10:51:25;;;;;;;1.50;1.13;;;31.20;55.60;;;;;;5017986;28;20069;-65
2022/07/03 10:54:13;;;;;;;1.27;1.17;;;31.30;54.70;;;;;;5015728;28;20053;-65
2022/07/03 10:57:03;;;;;;;2.08;1.40;;;31.20;55.60;;;;;;5017905;28;21141;-68
2022/07/03 10:59:36;;;;;;;1.50;1.10;;;31.30;54.40;;;;;;5011475;28;20400;-66
2022/07/03 11:02:31;;;;;;;1.13;0.90;;;31.30;52.60;;;;;;5017922;28;20616;-65
2022/07/03 11:05:01;;;;;;;1.05;0.95;;;31.30;53.70;;;;;;5017353;28;20037;-65
2022/07/03 11:07:49;;;;;;;3.00;1.30;;;31.30;54.40;;;;;;5016331;28;20053;-66
2022/07/03 11:10:16;;;;;;;2.20;0.88;;;31.40;55.20;;;;;;5016140;28;20037;-66
2022/07/03 11:12:58;;;;;;;1.50;1.20;;;31.50;51.20;;;;;;5016560;28;20049;-66
2022/07/03 11:15:30;;;;;;;3.88;1.23;;;31.40;54.10;;;;;;5015132;28;20140;-66
2022/07/03 11:18:14;;;;;;;1.38;1.27;;;31.50;55.20;;;;;;5006406;28;20042;-66
2022/07/03 11:20:41;;;;;;;1.30;1.10;;;31.30;53.40;;;;;;5015345;28;20044;-67
2022/07/03 11:23:26;;;;;;;5.13;1.08;;;31.30;55.00;;;;;;5016000;28;20044;-66
2022/07/03 11:25:55;;;;;;;1.85;0.80;;;31.30;52.20;;;;;;5017236;28;20052;-66
2022/07/03 11:28:31;;;;;;;1.20;1.10;;;31.30;53.70;;;;;;5017150;28;20128;-66
2022/07/03 11:31:10;;;;;;;2.45;1.25;;;31.40;55.70;;;;;;5014491;28;20064;-66
2022/07/03 11:33:42;;;;;;;3.65;0.85;;;31.40;56.50;;;;;;5016693;28;20049;-65
2022/07/03 11:36:11;;;;;;;3.25;1.00;;;31.50;55.10;;;;;;5016999;28;20887;-65
2022/07/03 11:38:38;;;;;;;3.17;0.90;;;31.60;52.70;;;;;;5016324;28;20589;-67
2022/07/03 11:41:10;;;;;;;1.08;1.08;;;31.60;52.70;;;;;;5017330;28;20045;-67
2022/07/03 11:43:38;;;;;;;2.28;1.05;;;31.70;52.70;;;;;;5013687;28;20037;-67
2022/07/03 11:46:05;;;;;;;3.80;0.95;;;31.70;52.80;;;;;;5017241;28;20578;-66
2022/07/03 11:48:32;;;;;;;2.67;1.40;;;31.70;54.20;;;;;;5014670;28;20116;-66
2022/07/03 11:51:01;;;;;;;3.78;1.10;;;31.80;53.30;;;;;;5016801;28;20053;-66
2022/07/03 11:53:31;;;;;;;1.88;1.33;;;31.80;53.70;;;;;;5014150;28;20117;-67
2022/07/03 11:56:06;;;;;;;1.02;1.00;;;31.80;52.80;;;;;;5001182;28;20520;-66
2022/07/03 11:58:54;;;;;;;2.40;1.10;;;31.70;52.50;;;;;;4996465;28;20676;-65
2022/07/03 12:01:35;;;;;;;0.80;0.77;;;31.70;52.30;;;;;;5015072;28;20139;-65
2022/07/03 12:04:12;;;;;;;2.40;1.10;;;31.60;51.50;;;;;;5012781;28;20114;-65
2022/07/03 12:06:48;;;;;;;2.05;1.02;;;31.70;51.00;;;;;;4996991;28;20057;-65
2022/07/03 12:09:49;;;;;;;3.20;1.05;;;31.90;51.50;;;;;;5012907;28;20095;-67
2022/07/03 12:12:16;;;;;;;1.90;1.13;;;31.90;52.50;;;;;;5000643;28;20076;-65
2022/07/03 12:14:47;;;;;;;0.98;0.98;;;31.90;53.10;;;;;;5015331;28;20048;-66
2022/07/03 12:17:20;;;;;;;0.80;0.80;;;31.90;51.70;;;;;;5013560;28;20559;-66
2022/07/03 12:19:49;;;;;;;1.48;1.30;;;31.90;53.60;;;;;;5013766;28;20602;-66
2022/07/03 12:22:34;;;;;;;1.48;1.15;;;31.90;51.50;;;;;;5015204;28;20468;-65
2022/07/03 12:25:02;;;;;;;4.68;1.25;;;31.80;51.10;;;;;;5013675;28;20114;-65
2022/07/03 12:27:34;;;;;;;1.17;1.10;;;31.80;53.20;;;;;;5010017;28;20124;-67
2022/07/03 12:30:02;;;;;;;0.93;0.77;;;31.90;52.20;;;;;;5009527;28;20037;-67
2022/07/03 12:32:29;;;;;;;1.23;1.13;;;31.90;52.90;;;;;;5015147;28;20120;-68
2022/07/03 12:34:56;;;;;;;3.33;1.00;;;32.10;51.60;;;;;;5015683;28;20052;-67
2022/07/03 12:37:40;;;;;;;1.48;0.80;;;32.20;52.00;;;;;;5014175;28;20450;-67
2022/07/03 12:40:09;;;;;;;1.08;0.98;;;32.30;52.30;;;;;;5014127;28;20089;-66
2022/07/03 12:42:53;;;;;;;1.08;0.90;;;32.20;50.20;;;;;;5014957;28;20049;-66
2022/07/03 12:45:23;;;;;;;8.30;1.52;;;32.30;51.40;;;;;;4997028;28;20492;-67
2022/07/03 12:48:04;;;;;;;0.95;0.93;;;32.30;51.30;;;;;;5016904;28;20029;-68
2022/07/03 12:50:48;;;;;;;1.77;1.05;;;32.10;49.80;;;;;;5014337;28;20065;-66
2022/07/03 12:53:32;;;;;;;1.90;0.85;;;32.10;52.00;;;;;;5013994;28;20048;-67
2022/07/03 12:56:04;;;;;;;1.17;0.93;;;32.10;51.60;;;;;;5012528;28;20095;-65
2022/07/03 13:01:28;;;;;;;2.47;1.10;;;32.00;48.90;;;;;;5011169;28;20037;-67
2022/07/03 13:03:56;;;;;;;1.05;1.00;;;31.90;50.20;;;;;;5014870;28;20044;-65
2022/07/03 13:06:23;;;;;;;1.45;1.10;;;32.00;50.00;;;;;;5014600;28;20037;-68
2022/07/03 13:08:58;;;;;;;1.05;0.90;;;32.00;49.70;;;;;;4997468;28;20554;-66
2022/07/03 13:11:31;;;;;;;1.30;1.00;;;32.10;50.80;;;;;;5015551;28;20068;-68
2022/07/03 13:14:05;;;;;;;2.22;1.13;;;32.20;49.60;;;;;;5014851;28;20073;-65
2022/07/03 13:16:47;;;;;;;1.35;0.90;;;32.30;49.80;;;;;;5015050;28;20056;-64
2022/07/03 13:19:19;;;;;;;4.90;0.90;;;32.40;49.40;;;;;;4994148;28;20038;-64
2022/07/03 13:21:47;;;;;;;0.90;0.90;;;32.50;48.70;;;;;;4995310;28;20042;-64
2022/07/03 13:24:16;;;;;;;2.55;1.42;;;32.50;49.10;;;;;;4993958;28;20049;-64
2022/07/03 13:26:44;;;;;;;1.45;0.80;;;32.40;48.50;;;;;;4996434;28;20045;-65
2022/07/03 13:29:18;;;;;;;1.45;0.80;;;32.30;50.80;;;;;;5013757;28;20048;-65
2022/07/03 13:31:46;;;;;;;1.92;1.20;;;32.30;50.10;;;;;;5012106;28;20111;-65